KCNU/CNU METAR and TAF weather

Enter ICAO airport designator
Station Type Date Time Source
KCNU METAR 2021/09/24 02:52 UTC NOAA

KCNU 240252Z AUTO 15007KT 10SM CLR 17/09 A3003 RMK AO2 SLP162 T01720089 53007


Station Type Date Time Source
KCNU Decoded METAR 2021/09/24 02:52 UTC NOAA

CHANUTE JOHNSON AIRPORT, KS, United States (KCNU) 37-40N 95-29W 297M
Sep 23, 2021 - 10:52 PM EDT / 2021.09.24 0252 UTC
Wind: from the SSE (150 degrees) at 8 MPH (7 KT):0
Visibility: 10 mile(s):0
Sky conditions: clear
Temperature: 63.0 F (17.2 C)
Dew Point: 48.0 F (8.9 C)
Relative Humidity: 58%
Pressure (altimeter): 30.03 in. Hg (1016 hPa)
Pressure tendency: 0.02 inches (0.7 hPa) higher than three hours ago
ob: KCNU 240252Z AUTO 15007KT 10SM CLR 17/09 A3003 RMK AO2 SLP162 T01720089 53007
cycle: 3

Station Type Date Time Source
KCNU TAF 2021/09/23 18:22 UTC NOAA

TAF KCNU 231720Z 2318/2418 20008KT P6SM SKC
FM240000 16006KT P6SM SKC
FM241400 21015KT P6SM SCT250

Example: see airport list